sensor_id;sensor_type;location;lat;lon;timestamp;temperature;humidity
46652;DHT22;32377;52.182;5.398;2022-08-18T00:00:04;17.90;99.90
46652;DHT22;32377;52.182;5.398;2022-08-18T00:02:31;17.90;99.90
46652;DHT22;32377;52.182;5.398;2022-08-18T00:04:56;17.90;99.90
46652;DHT22;32377;52.182;5.398;2022-08-18T00:07:30;17.90;99.90
46652;DHT22;32377;52.182;5.398;2022-08-18T00:09:58;17.90;99.90
46652;DHT22;32377;52.182;5.398;2022-08-18T00:12:30;18.00;99.90
46652;DHT22;32377;52.182;5.398;2022-08-18T00:14:56;17.90;99.90
46652;DHT22;32377;52.182;5.398;2022-08-18T00:17:26;18.00;99.90
46652;DHT22;32377;52.182;5.398;2022-08-18T00:19:52;17.90;99.90
46652;DHT22;32377;52.182;5.398;2022-08-18T00:22:19;17.90;99.90
46652;DHT22;32377;52.182;5.398;2022-08-18T00:24:54;18.00;99.90
46652;DHT22;32377;52.182;5.398;2022-08-18T00:27:23;17.90;99.90
46652;DHT22;32377;52.182;5.398;2022-08-18T00:29:50;17.90;99.90
46652;DHT22;32377;52.182;5.398;2022-08-18T00:32:19;18.00;99.90
46652;DHT22;32377;52.182;5.398;2022-08-18T00:34:45;18.00;99.90
46652;DHT22;32377;52.182;5.398;2022-08-18T00:37:11;17.80;99.90
46652;DHT22;32377;52.182;5.398;2022-08-18T00:39:36;17.80;99.90
46652;DHT22;32377;52.182;5.398;2022-08-18T00:42:16;17.80;99.90
46652;DHT22;32377;52.182;5.398;2022-08-18T00:44:41;17.80;99.90
46652;DHT22;32377;52.182;5.398;2022-08-18T00:47:07;17.80;99.90
46652;DHT22;32377;52.182;5.398;2022-08-18T00:49:33;17.70;99.90
46652;DHT22;32377;52.182;5.398;2022-08-18T00:52:00;17.80;99.90
46652;DHT22;32377;52.182;5.398;2022-08-18T00:54:29;17.70;99.90
46652;DHT22;32377;52.182;5.398;2022-08-18T00:56:59;17.70;99.90
46652;DHT22;32377;52.182;5.398;2022-08-18T00:59:44;17.70;99.90
46652;DHT22;32377;52.182;5.398;2022-08-18T01:02:18;17.70;99.90
46652;DHT22;32377;52.182;5.398;2022-08-18T01:04:57;17.60;99.90
46652;DHT22;32377;52.182;5.398;2022-08-18T01:07:38;17.70;99.90
46652;DHT22;32377;52.182;5.398;2022-08-18T01:10:08;17.60;99.90
46652;DHT22;32377;52.182;5.398;2022-08-18T01:12:34;17.60;99.90
46652;DHT22;32377;52.182;5.398;2022-08-18T01:15:01;17.50;99.90
46652;DHT22;32377;52.182;5.398;2022-08-18T01:17:27;17.60;99.90
46652;DHT22;32377;52.182;5.398;2022-08-18T01:20:15;17.70;99.90
46652;DHT22;32377;52.182;5.398;2022-08-18T01:23:14;17.70;99.90
46652;DHT22;32377;52.182;5.398;2022-08-18T01:25:41;17.80;99.90
46652;DHT22;32377;52.182;5.398;2022-08-18T01:28:37;17.70;99.90
46652;DHT22;32377;52.182;5.398;2022-08-18T01:31:03;17.70;99.90
46652;DHT22;32377;52.182;5.398;2022-08-18T01:33:34;17.70;99.90
46652;DHT22;32377;52.182;5.398;2022-08-18T01:36:14;17.80;99.90
46652;DHT22;32377;52.182;5.398;2022-08-18T01:38:41;17.90;99.90
46652;DHT22;32377;52.182;5.398;2022-08-18T01:41:07;17.90;99.90
46652;DHT22;32377;52.182;5.398;2022-08-18T01:43:34;17.90;99.90
46652;DHT22;32377;52.182;5.398;2022-08-18T01:46:01;17.80;99.90
46652;DHT22;32377;52.182;5.398;2022-08-18T01:48:30;17.90;99.90
46652;DHT22;32377;52.182;5.398;2022-08-18T01:51:06;18.00;99.90
46652;DHT22;32377;52.182;5.398;2022-08-18T01:53:34;17.90;99.90
46652;DHT22;32377;52.182;5.398;2022-08-18T01:56:00;17.80;99.90
46652;DHT22;32377;52.182;5.398;2022-08-18T01:58:28;17.90;99.90
46652;DHT22;32377;52.182;5.398;2022-08-18T02:00:54;17.80;99.90
46652;DHT22;32377;52.182;5.398;2022-08-18T02:03:30;17.90;99.90
46652;DHT22;32377;52.182;5.398;2022-08-18T02:06:00;17.80;99.90
46652;DHT22;32377;52.182;5.398;2022-08-18T02:08:26;17.90;99.90
46652;DHT22;32377;52.182;5.398;2022-08-18T02:10:52;17.80;99.90
46652;DHT22;32377;52.182;5.398;2022-08-18T02:13:18;17.80;99.90
46652;DHT22;32377;52.182;5.398;2022-08-18T02:15:44;17.80;99.90
46652;DHT22;32377;52.182;5.398;2022-08-18T02:18:16;17.80;99.90
46652;DHT22;32377;52.182;5.398;2022-08-18T02:20:42;17.70;99.90
46652;DHT22;32377;52.182;5.398;2022-08-18T02:23:09;17.70;99.90
46652;DHT22;32377;52.182;5.398;2022-08-18T02:25:34;17.60;99.90
46652;DHT22;32377;52.182;5.398;2022-08-18T02:28:00;17.60;99.90
46652;DHT22;32377;52.182;5.398;2022-08-18T02:30:25;17.60;99.90
46652;DHT22;32377;52.182;5.398;2022-08-18T02:32:51;17.50;99.90
46652;DHT22;32377;52.182;5.398;2022-08-18T02:35:17;17.60;99.90
46652;DHT22;32377;52.182;5.398;2022-08-18T02:37:43;17.50;99.90
46652;DHT22;32377;52.182;5.398;2022-08-18T02:40:12;17.50;99.90
46652;DHT22;32377;52.182;5.398;2022-08-18T02:42:38;17.40;99.90
46652;DHT22;32377;52.182;5.398;2022-08-18T02:45:04;17.50;99.90
46652;DHT22;32377;52.182;5.398;2022-08-18T02:47:31;17.40;99.90
46652;DHT22;32377;52.182;5.398;2022-08-18T02:49:57;17.40;99.90
46652;DHT22;32377;52.182;5.398;2022-08-18T02:52:22;17.40;99.90
46652;DHT22;32377;52.182;5.398;2022-08-18T02:54:53;17.50;99.90
46652;DHT22;32377;52.182;5.398;2022-08-18T02:57:18;17.40;99.90
46652;DHT22;32377;52.182;5.398;2022-08-18T02:59:47;17.40;99.90
46652;DHT22;32377;52.182;5.398;2022-08-18T03:02:13;17.40;99.90
46652;DHT22;32377;52.182;5.398;2022-08-18T03:04:38;17.50;99.90
46652;DHT22;32377;52.182;5.398;2022-08-18T03:07:06;17.50;99.90
46652;DHT22;32377;52.182;5.398;2022-08-18T03:09:33;17.50;99.90
46652;DHT22;32377;52.182;5.398;2022-08-18T03:11:59;17.50;99.90
46652;DHT22;32377;52.182;5.398;2022-08-18T03:14:25;17.50;99.90
46652;DHT22;32377;52.182;5.398;2022-08-18T03:16:51;17.50;99.90
46652;DHT22;32377;52.182;5.398;2022-08-18T03:19:17;17.50;99.90
46652;DHT22;32377;52.182;5.398;2022-08-18T03:21:45;17.50;99.90
46652;DHT22;32377;52.182;5.398;2022-08-18T03:24:11;17.60;99.90
46652;DHT22;32377;52.182;5.398;2022-08-18T03:26:42;17.50;99.90
46652;DHT22;32377;52.182;5.398;2022-08-18T03:29:10;17.60;99.90
46652;DHT22;32377;52.182;5.398;2022-08-18T03:31:36;17.70;99.90
46652;DHT22;32377;52.182;5.398;2022-08-18T03:34:04;17.70;99.90
46652;DHT22;32377;52.182;5.398;2022-08-18T03:36:31;17.70;99.90
46652;DHT22;32377;52.182;5.398;2022-08-18T03:39:02;17.70;99.90
46652;DHT22;32377;52.182;5.398;2022-08-18T03:41:28;17.70;99.90
46652;DHT22;32377;52.182;5.398;2022-08-18T03:43:54;17.70;99.90
46652;DHT22;32377;52.182;5.398;2022-08-18T03:46:21;17.70;99.90
46652;DHT22;32377;52.182;5.398;2022-08-18T03:48:48;17.70;99.90
46652;DHT22;32377;52.182;5.398;2022-08-18T03:51:17;17.70;99.90
46652;DHT22;32377;52.182;5.398;2022-08-18T03:53:44;17.60;99.90
46652;DHT22;32377;52.182;5.398;2022-08-18T03:56:12;17.70;99.90
46652;DHT22;32377;52.182;5.398;2022-08-18T03:58:46;17.60;99.90
46652;DHT22;32377;52.182;5.398;2022-08-18T04:01:13;17.70;99.90
46652;DHT22;32377;52.182;5.398;2022-08-18T04:03:43;17.60;99.90
46652;DHT22;32377;52.182;5.398;2022-08-18T04:06:14;17.70;99.90
46652;DHT22;32377;52.182;5.398;2022-08-18T04:08:40;17.60;99.90
46652;DHT22;32377;52.182;5.398;2022-08-18T04:11:06;17.60;99.90
46652;DHT22;32377;52.182;5.398;2022-08-18T04:13:31;17.60;99.90
46652;DHT22;32377;52.182;5.398;2022-08-18T04:16:00;17.50;99.90
46652;DHT22;32377;52.182;5.398;2022-08-18T04:18:26;17.40;99.90
46652;DHT22;32377;52.182;5.398;2022-08-18T04:20:52;17.50;99.90
46652;DHT22;32377;52.182;5.398;2022-08-18T04:23:18;17.50;99.90
46652;DHT22;32377;52.182;5.398;2022-08-18T04:25:43;17.50;99.90
46652;DHT22;32377;52.182;5.398;2022-08-18T04:28:09;17.60;99.90
46652;DHT22;32377;52.182;5.398;2022-08-18T04:30:35;17.60;99.90
46652;DHT22;32377;52.182;5.398;2022-08-18T04:33:01;17.60;99.90
46652;DHT22;32377;52.182;5.398;2022-08-18T04:35:27;17.60;99.90
46652;DHT22;32377;52.182;5.398;2022-08-18T04:37:53;17.70;99.90
46652;DHT22;32377;52.182;5.398;2022-08-18T04:40:19;17.60;99.90
46652;DHT22;32377;52.182;5.398;2022-08-18T04:42:45;17.70;99.90
46652;DHT22;32377;52.182;5.398;2022-08-18T04:45:10;17.70;99.90
46652;DHT22;32377;52.182;5.398;2022-08-18T04:47:38;17.70;99.90
46652;DHT22;32377;52.182;5.398;2022-08-18T04:50:06;17.80;99.90
46652;DHT22;32377;52.182;5.398;2022-08-18T04:52:32;17.70;99.90
46652;DHT22;32377;52.182;5.398;2022-08-18T04:55:16;17.70;99.90
46652;DHT22;32377;52.182;5.398;2022-08-18T04:57:42;17.60;99.90
46652;DHT22;32377;52.182;5.398;2022-08-18T05:00:08;17.60;99.90
46652;DHT22;32377;52.182;5.398;2022-08-18T05:02:36;17.60;99.90
46652;DHT22;32377;52.182;5.398;2022-08-18T05:05:03;17.60;99.90
46652;DHT22;32377;52.182;5.398;2022-08-18T05:07:29;17.60;99.90
46652;DHT22;32377;52.182;5.398;2022-08-18T05:09:55;17.50;99.90
46652;DHT22;32377;52.182;5.398;2022-08-18T05:12:20;17.60;99.90
46652;DHT22;32377;52.182;5.398;2022-08-18T05:14:46;17.60;99.90
46652;DHT22;32377;52.182;5.398;2022-08-18T05:17:13;17.70;99.90
46652;DHT22;32377;52.182;5.398;2022-08-18T05:19:39;17.60;99.90
46652;DHT22;32377;52.182;5.398;2022-08-18T05:22:09;17.70;99.90
46652;DHT22;32377;52.182;5.398;2022-08-18T05:24:35;17.70;99.90
46652;DHT22;32377;52.182;5.398;2022-08-18T05:27:01;17.80;99.90
46652;DHT22;32377;52.182;5.398;2022-08-18T05:29:28;17.80;99.90
46652;DHT22;32377;52.182;5.398;2022-08-18T05:32:00;17.80;99.90
46652;DHT22;32377;52.182;5.398;2022-08-18T05:34:28;17.80;99.90
46652;DHT22;32377;52.182;5.398;2022-08-18T05:37:27;17.80;99.90
46652;DHT22;32377;52.182;5.398;2022-08-18T05:40:00;17.90;99.90
46652;DHT22;32377;52.182;5.398;2022-08-18T05:42:29;17.80;99.90
46652;DHT22;32377;52.182;5.398;2022-08-18T05:44:59;17.90;99.90
46652;DHT22;32377;52.182;5.398;2022-08-18T05:47:28;18.00;99.90
46652;DHT22;32377;52.182;5.398;2022-08-18T05:49:56;18.00;99.90
46652;DHT22;32377;52.182;5.398;2022-08-18T05:55:08;18.20;99.90
46652;DHT22;32377;52.182;5.398;2022-08-18T05:58:02;18.30;99.90
46652;DHT22;32377;52.182;5.398;2022-08-18T06:00:30;18.40;99.90
46652;DHT22;32377;52.182;5.398;2022-08-18T06:03:19;18.30;99.90
46652;DHT22;32377;52.182;5.398;2022-08-18T06:05:55;18.40;99.90
46652;DHT22;32377;52.182;5.398;2022-08-18T06:08:26;18.50;99.90
46652;DHT22;32377;52.182;5.398;2022-08-18T06:10:53;18.50;99.90
46652;DHT22;32377;52.182;5.398;2022-08-18T06:13:19;18.50;99.90
46652;DHT22;32377;52.182;5.398;2022-08-18T06:15:53;18.60;99.90
46652;DHT22;32377;52.182;5.398;2022-08-18T06:18:34;18.70;99.90
46652;DHT22;32377;52.182;5.398;2022-08-18T06:24:15;18.90;99.90
46652;DHT22;32377;52.182;5.398;2022-08-18T06:29:36;19.00;99.90
46652;DHT22;32377;52.182;5.398;2022-08-18T06:41:11;19.30;99.90
46652;DHT22;32377;52.182;5.398;2022-08-18T06:43:43;19.40;99.90
46652;DHT22;32377;52.182;5.398;2022-08-18T06:46:18;19.50;99.90
46652;DHT22;32377;52.182;5.398;2022-08-18T06:48:57;19.60;99.90
46652;DHT22;32377;52.182;5.398;2022-08-18T06:51:26;19.70;99.90
46652;DHT22;32377;52.182;5.398;2022-08-18T06:56:25;19.80;99.90
46652;DHT22;32377;52.182;5.398;2022-08-18T06:58:51;19.80;99.90
46652;DHT22;32377;52.182;5.398;2022-08-18T07:01:22;19.90;99.90
46652;DHT22;32377;52.182;5.398;2022-08-18T07:03:52;19.90;99.90
46652;DHT22;32377;52.182;5.398;2022-08-18T07:08:49;20.00;99.90
46652;DHT22;32377;52.182;5.398;2022-08-18T07:11:31;20.10;99.90
46652;DHT22;32377;52.182;5.398;2022-08-18T07:14:20;20.00;99.90
46652;DHT22;32377;52.182;5.398;2022-08-18T07:16:46;20.10;99.90
46652;DHT22;32377;52.182;5.398;2022-08-18T07:19:14;20.10;99.90
46652;DHT22;32377;52.182;5.398;2022-08-18T07:21:42;20.10;99.90
46652;DHT22;32377;52.182;5.398;2022-08-18T07:24:11;20.20;99.90
46652;DHT22;32377;52.182;5.398;2022-08-18T07:29:28;20.50;99.90
46652;DHT22;32377;52.182;5.398;2022-08-18T07:31:57;20.60;99.90
46652;DHT22;32377;52.182;5.398;2022-08-18T07:34:31;20.70;99.90
46652;DHT22;32377;52.182;5.398;2022-08-18T07:37:22;20.90;99.90
46652;DHT22;32377;52.182;5.398;2022-08-18T07:40:12;21.10;99.90
46652;DHT22;32377;52.182;5.398;2022-08-18T07:42:46;21.30;99.90
46652;DHT22;32377;52.182;5.398;2022-08-18T07:45:30;21.50;99.90
46652;DHT22;32377;52.182;5.398;2022-08-18T07:48:30;21.70;99.90
46652;DHT22;32377;52.182;5.398;2022-08-18T07:53:30;21.80;99.90
46652;DHT22;32377;52.182;5.398;2022-08-18T07:56:04;21.90;99.90
46652;DHT22;32377;52.182;5.398;2022-08-18T07:58:47;22.00;99.90
46652;DHT22;32377;52.182;5.398;2022-08-18T08:01:42;21.90;99.90
46652;DHT22;32377;52.182;5.398;2022-08-18T08:07:04;22.10;99.90
46652;DHT22;32377;52.182;5.398;2022-08-18T08:12:42;21.90;99.90
46652;DHT22;32377;52.182;5.398;2022-08-18T08:15:21;21.70;99.90
46652;DHT22;32377;52.182;5.398;2022-08-18T08:18:14;21.50;99.90
46652;DHT22;32377;52.182;5.398;2022-08-18T08:20:53;21.50;99.90
46652;DHT22;32377;52.182;5.398;2022-08-18T08:23:29;21.50;99.90
46652;DHT22;32377;52.182;5.398;2022-08-18T08:26:22;21.40;99.90
46652;DHT22;32377;52.182;5.398;2022-08-18T08:37:09;21.90;99.90
46652;DHT22;32377;52.182;5.398;2022-08-18T08:40:04;22.10;99.90
46652;DHT22;32377;52.182;5.398;2022-08-18T08:42:41;22.40;99.90
46652;DHT22;32377;52.182;5.398;2022-08-18T08:45:14;22.60;99.90
46652;DHT22;32377;52.182;5.398;2022-08-18T08:50:51;22.90;99.90
46652;DHT22;32377;52.182;5.398;2022-08-18T08:55:58;23.20;99.90
46652;DHT22;32377;52.182;5.398;2022-08-18T08:58:43;23.30;99.90
46652;DHT22;32377;52.182;5.398;2022-08-18T09:07:05;23.50;99.90
46652;DHT22;32377;52.182;5.398;2022-08-18T09:12:39;22.70;99.90
46652;DHT22;32377;52.182;5.398;2022-08-18T09:17:58;22.30;99.90
46652;DHT22;32377;52.182;5.398;2022-08-18T09:20:48;22.20;99.90
46652;DHT22;32377;52.182;5.398;2022-08-18T09:23:27;22.20;99.90
46652;DHT22;32377;52.182;5.398;2022-08-18T09:25:57;22.10;99.90
46652;DHT22;32377;52.182;5.398;2022-08-18T09:36:29;22.20;99.90
46652;DHT22;32377;52.182;5.398;2022-08-18T09:39:08;22.40;99.90
46652;DHT22;32377;52.182;5.398;2022-08-18T09:41:57;22.70;99.90
46652;DHT22;32377;52.182;5.398;2022-08-18T09:44:55;23.00;99.90
46652;DHT22;32377;52.182;5.398;2022-08-18T09:49:54;23.40;99.90
46652;DHT22;32377;52.182;5.398;2022-08-18T10:07:45;23.30;99.90
46652;DHT22;32377;52.182;5.398;2022-08-18T10:10:27;23.30;99.90
46652;DHT22;32377;52.182;5.398;2022-08-18T10:15:44;23.00;99.90
46652;DHT22;32377;52.182;5.398;2022-08-18T10:18:37;23.00;99.90
46652;DHT22;32377;52.182;5.398;2022-08-18T10:21:12;23.00;99.90
46652;DHT22;32377;52.182;5.398;2022-08-18T10:28:57;23.30;99.90
46652;DHT22;32377;52.182;5.398;2022-08-18T10:31:24;23.40;99.90
46652;DHT22;32377;52.182;5.398;2022-08-18T10:34:10;23.60;99.90
46652;DHT22;32377;52.182;5.398;2022-08-18T10:36:58;23.40;99.90
46652;DHT22;32377;52.182;5.398;2022-08-18T10:39:46;23.30;99.90
46652;DHT22;32377;52.182;5.398;2022-08-18T10:42:27;23.30;99.90
46652;DHT22;32377;52.182;5.398;2022-08-18T10:47:38;23.40;99.90
46652;DHT22;32377;52.182;5.398;2022-08-18T10:50:18;23.50;99.90
46652;DHT22;32377;52.182;5.398;2022-08-18T10:53:19;23.50;99.90
46652;DHT22;32377;52.182;5.398;2022-08-18T10:56:17;23.50;99.90
46652;DHT22;32377;52.182;5.398;2022-08-18T11:01:28;23.80;99.90
46652;DHT22;32377;52.182;5.398;2022-08-18T11:06:51;23.90;99.90
46652;DHT22;32377;52.182;5.398;2022-08-18T11:09:27;24.20;99.90
46652;DHT22;32377;52.182;5.398;2022-08-18T11:11:56;24.20;99.90
46652;DHT22;32377;52.182;5.398;2022-08-18T11:15:00;24.10;99.90
46652;DHT22;32377;52.182;5.398;2022-08-18T11:19:52;24.10;99.90
46652;DHT22;32377;52.182;5.398;2022-08-18T11:22:32;24.40;99.90
46652;DHT22;32377;52.182;5.398;2022-08-18T11:24:59;24.40;99.90
46652;DHT22;32377;52.182;5.398;2022-08-18T11:27:29;24.20;99.90
46652;DHT22;32377;52.182;5.398;2022-08-18T11:30:00;24.20;99.90
46652;DHT22;32377;52.182;5.398;2022-08-18T11:32:35;24.30;99.90
46652;DHT22;32377;52.182;5.398;2022-08-18T11:35:14;24.20;99.90
46652;DHT22;32377;52.182;5.398;2022-08-18T11:40:22;24.50;99.90
46652;DHT22;32377;52.182;5.398;2022-08-18T11:43:10;24.60;99.90
46652;DHT22;32377;52.182;5.398;2022-08-18T11:58:51;24.80;99.90
46652;DHT22;32377;52.182;5.398;2022-08-18T12:09:26;24.80;99.90
46652;DHT22;32377;52.182;5.398;2022-08-18T12:11:57;24.80;99.90
46652;DHT22;32377;52.182;5.398;2022-08-18T12:14:26;24.90;99.90
46652;DHT22;32377;52.182;5.398;2022-08-18T12:16:52;24.90;99.90
46652;DHT22;32377;52.182;5.398;2022-08-18T12:19:19;24.90;99.90
46652;DHT22;32377;52.182;5.398;2022-08-18T12:21:56;24.80;99.90
46652;DHT22;32377;52.182;5.398;2022-08-18T12:24:28;24.80;99.90
46652;DHT22;32377;52.182;5.398;2022-08-18T12:26:55;24.90;99.90
46652;DHT22;32377;52.182;5.398;2022-08-18T12:29:21;24.80;99.90
46652;DHT22;32377;52.182;5.398;2022-08-18T12:31:48;24.80;99.90
46652;DHT22;32377;52.182;5.398;2022-08-18T12:34:19;25.00;99.90
46652;DHT22;32377;52.182;5.398;2022-08-18T12:36:49;25.10;99.90
46652;DHT22;32377;52.182;5.398;2022-08-18T12:39:15;25.30;99.90
46652;DHT22;32377;52.182;5.398;2022-08-18T12:41:40;25.20;99.90
46652;DHT22;32377;52.182;5.398;2022-08-18T12:44:06;25.30;99.90
46652;DHT22;32377;52.182;5.398;2022-08-18T12:46:31;24.90;99.90
46652;DHT22;32377;52.182;5.398;2022-08-18T12:48:57;24.70;99.90
46652;DHT22;32377;52.182;5.398;2022-08-18T12:51:23;24.60;99.90
46652;DHT22;32377;52.182;5.398;2022-08-18T12:53:49;24.40;99.90
46652;DHT22;32377;52.182;5.398;2022-08-18T12:56:23;24.30;99.90
46652;DHT22;32377;52.182;5.398;2022-08-18T12:58:49;24.20;99.90
46652;DHT22;32377;52.182;5.398;2022-08-18T13:01:16;24.10;99.90
46652;DHT22;32377;52.182;5.398;2022-08-18T13:03:43;24.10;99.90
46652;DHT22;32377;52.182;5.398;2022-08-18T13:06:10;23.90;99.90
46652;DHT22;32377;52.182;5.398;2022-08-18T13:08:36;23.80;99.90
46652;DHT22;32377;52.182;5.398;2022-08-18T13:11:02;23.50;99.90
46652;DHT22;32377;52.182;5.398;2022-08-18T13:13:38;23.40;99.90
46652;DHT22;32377;52.182;5.398;2022-08-18T13:16:05;23.30;99.90
46652;DHT22;32377;52.182;5.398;2022-08-18T13:18:32;23.40;99.90
46652;DHT22;32377;52.182;5.398;2022-08-18T13:20:58;23.30;99.90
46652;DHT22;32377;52.182;5.398;2022-08-18T13:23:25;23.30;99.90
46652;DHT22;32377;52.182;5.398;2022-08-18T13:25:56;23.40;99.90
46652;DHT22;32377;52.182;5.398;2022-08-18T13:28:22;23.60;99.90
46652;DHT22;32377;52.182;5.398;2022-08-18T13:30:48;23.60;99.90
46652;DHT22;32377;52.182;5.398;2022-08-18T13:33:15;23.80;99.90
46652;DHT22;32377;52.182;5.398;2022-08-18T13:35:43;23.90;99.90
46652;DHT22;32377;52.182;5.398;2022-08-18T13:38:09;23.80;99.90
46652;DHT22;32377;52.182;5.398;2022-08-18T13:40:36;23.80;99.90
46652;DHT22;32377;52.182;5.398;2022-08-18T13:43:02;23.80;99.90
46652;DHT22;32377;52.182;5.398;2022-08-18T13:45:28;23.90;99.90
46652;DHT22;32377;52.182;5.398;2022-08-18T13:47:53;23.90;99.90
46652;DHT22;32377;52.182;5.398;2022-08-18T13:50:19;23.80;99.90
46652;DHT22;32377;52.182;5.398;2022-08-18T13:52:45;23.80;99.90
46652;DHT22;32377;52.182;5.398;2022-08-18T13:55:14;23.90;99.90
46652;DHT22;32377;52.182;5.398;2022-08-18T13:57:41;24.10;99.90
46652;DHT22;32377;52.182;5.398;2022-08-18T14:00:15;23.90;99.90
46652;DHT22;32377;52.182;5.398;2022-08-18T14:02:41;23.90;99.90
46652;DHT22;32377;52.182;5.398;2022-08-18T14:05:07;24.00;99.90
46652;DHT22;32377;52.182;5.398;2022-08-18T14:07:36;23.90;99.90
46652;DHT22;32377;52.182;5.398;2022-08-18T14:10:05;23.90;99.90
46652;DHT22;32377;52.182;5.398;2022-08-18T14:12:34;23.90;99.90
46652;DHT22;32377;52.182;5.398;2022-08-18T14:15:03;23.90;99.90
46652;DHT22;32377;52.182;5.398;2022-08-18T14:17:31;24.00;99.90
46652;DHT22;32377;52.182;5.398;2022-08-18T14:19:57;24.10;99.90
46652;DHT22;32377;52.182;5.398;2022-08-18T14:22:41;24.30;99.90
46652;DHT22;32377;52.182;5.398;2022-08-18T14:25:26;24.40;99.90
46652;DHT22;32377;52.182;5.398;2022-08-18T14:28:10;24.30;99.90
46652;DHT22;32377;52.182;5.398;2022-08-18T14:30:37;24.40;99.90
46652;DHT22;32377;52.182;5.398;2022-08-18T14:33:07;24.50;99.90
46652;DHT22;32377;52.182;5.398;2022-08-18T14:35:34;24.60;99.90
46652;DHT22;32377;52.182;5.398;2022-08-18T14:38:01;24.70;99.90
46652;DHT22;32377;52.182;5.398;2022-08-18T14:40:27;24.80;99.90
46652;DHT22;32377;52.182;5.398;2022-08-18T14:42:53;24.80;99.90
46652;DHT22;32377;52.182;5.398;2022-08-18T14:45:20;24.80;99.90
46652;DHT22;32377;52.182;5.398;2022-08-18T14:47:45;24.90;99.90
46652;DHT22;32377;52.182;5.398;2022-08-18T14:50:11;24.80;99.90
46652;DHT22;32377;52.182;5.398;2022-08-18T14:52:39;24.70;99.90
46652;DHT22;32377;52.182;5.398;2022-08-18T14:55:06;24.70;99.90
46652;DHT22;32377;52.182;5.398;2022-08-18T14:57:32;24.60;99.90
46652;DHT22;32377;52.182;5.398;2022-08-18T14:59:58;24.60;99.90
46652;DHT22;32377;52.182;5.398;2022-08-18T15:02:23;24.60;99.90
46652;DHT22;32377;52.182;5.398;2022-08-18T15:04:49;24.50;99.90
46652;DHT22;32377;52.182;5.398;2022-08-18T15:07:14;24.40;99.90
46652;DHT22;32377;52.182;5.398;2022-08-18T15:09:40;24.30;99.90
46652;DHT22;32377;52.182;5.398;2022-08-18T15:12:06;24.40;99.90
46652;DHT22;32377;52.182;5.398;2022-08-18T15:14:33;24.20;99.90
46652;DHT22;32377;52.182;5.398;2022-08-18T15:17:04;24.20;99.90
46652;DHT22;32377;52.182;5.398;2022-08-18T15:19:32;24.40;99.90
46652;DHT22;32377;52.182;5.398;2022-08-18T15:21:58;24.40;99.90
46652;DHT22;32377;52.182;5.398;2022-08-18T15:24:42;24.40;99.90
46652;DHT22;32377;52.182;5.398;2022-08-18T15:27:31;24.50;99.90
46652;DHT22;32377;52.182;5.398;2022-08-18T15:29:59;24.40;99.90
46652;DHT22;32377;52.182;5.398;2022-08-18T15:32:26;24.40;99.90
46652;DHT22;32377;52.182;5.398;2022-08-18T15:34:51;24.30;99.90
46652;DHT22;32377;52.182;5.398;2022-08-18T15:37:18;24.40;99.90
46652;DHT22;32377;52.182;5.398;2022-08-18T15:39:44;24.50;99.90
46652;DHT22;32377;52.182;5.398;2022-08-18T15:42:10;24.60;99.90
46652;DHT22;32377;52.182;5.398;2022-08-18T15:44:37;24.60;99.90
46652;DHT22;32377;52.182;5.398;2022-08-18T15:47:02;24.90;99.90
46652;DHT22;32377;52.182;5.398;2022-08-18T15:49:29;24.90;99.90
46652;DHT22;32377;52.182;5.398;2022-08-18T15:51:56;24.90;99.90
46652;DHT22;32377;52.182;5.398;2022-08-18T15:54:21;24.80;99.90
46652;DHT22;32377;52.182;5.398;2022-08-18T15:56:47;24.70;99.90
46652;DHT22;32377;52.182;5.398;2022-08-18T15:59:12;24.70;99.90
46652;DHT22;32377;52.182;5.398;2022-08-18T16:01:38;24.70;99.90
46652;DHT22;32377;52.182;5.398;2022-08-18T16:04:05;24.60;99.90
46652;DHT22;32377;52.182;5.398;2022-08-18T16:06:33;24.50;99.90
46652;DHT22;32377;52.182;5.398;2022-08-18T16:09:00;24.40;99.90
46652;DHT22;32377;52.182;5.398;2022-08-18T16:11:26;24.30;99.90
46652;DHT22;32377;52.182;5.398;2022-08-18T16:13:51;24.40;99.90
46652;DHT22;32377;52.182;5.398;2022-08-18T16:16:20;24.30;99.90
46652;DHT22;32377;52.182;5.398;2022-08-18T16:18:46;24.30;99.90
46652;DHT22;32377;52.182;5.398;2022-08-18T16:21:19;24.30;99.90
46652;DHT22;32377;52.182;5.398;2022-08-18T16:23:47;24.10;99.90
46652;DHT22;32377;52.182;5.398;2022-08-18T16:26:15;24.10;99.90
46652;DHT22;32377;52.182;5.398;2022-08-18T16:28:46;24.10;99.90
46652;DHT22;32377;52.182;5.398;2022-08-18T16:31:18;24.10;99.90
46652;DHT22;32377;52.182;5.398;2022-08-18T16:33:50;24.10;99.90
46652;DHT22;32377;52.182;5.398;2022-08-18T16:36:16;24.10;99.90
46652;DHT22;32377;52.182;5.398;2022-08-18T16:38:42;24.10;99.90
46652;DHT22;32377;52.182;5.398;2022-08-18T16:41:11;24.10;99.90
46652;DHT22;32377;52.182;5.398;2022-08-18T16:43:40;24.20;99.90
46652;DHT22;32377;52.182;5.398;2022-08-18T16:46:20;24.20;99.90
46652;DHT22;32377;52.182;5.398;2022-08-18T16:48:48;24.20;99.90
46652;DHT22;32377;52.182;5.398;2022-08-18T16:51:16;24.20;99.90
46652;DHT22;32377;52.182;5.398;2022-08-18T16:53:43;24.10;99.90
46652;DHT22;32377;52.182;5.398;2022-08-18T16:56:16;24.10;99.90
46652;DHT22;32377;52.182;5.398;2022-08-18T16:58:42;24.00;99.90
46652;DHT22;32377;52.182;5.398;2022-08-18T17:01:26;23.90;99.90
46652;DHT22;32377;52.182;5.398;2022-08-18T17:04:13;23.90;99.90
46652;DHT22;32377;52.182;5.398;2022-08-18T17:06:42;23.80;99.90
46652;DHT22;32377;52.182;5.398;2022-08-18T17:09:08;23.70;99.90
46652;DHT22;32377;52.182;5.398;2022-08-18T17:11:36;23.80;99.90
46652;DHT22;32377;52.182;5.398;2022-08-18T17:14:02;23.80;99.90
46652;DHT22;32377;52.182;5.398;2022-08-18T17:16:28;23.80;99.90
46652;DHT22;32377;52.182;5.398;2022-08-18T17:18:55;23.90;99.90
46652;DHT22;32377;52.182;5.398;2022-08-18T17:21:24;24.00;99.90
46652;DHT22;32377;52.182;5.398;2022-08-18T17:23:52;24.10;99.90
46652;DHT22;32377;52.182;5.398;2022-08-18T17:26:44;24.10;99.90
46652;DHT22;32377;52.182;5.398;2022-08-18T17:29:30;24.10;99.90
46652;DHT22;32377;52.182;5.398;2022-08-18T17:32:01;23.90;99.90
46652;DHT22;32377;52.182;5.398;2022-08-18T17:34:38;23.90;99.90
46652;DHT22;32377;52.182;5.398;2022-08-18T17:37:10;23.90;99.90
46652;DHT22;32377;52.182;5.398;2022-08-18T17:39:42;23.80;99.90
46652;DHT22;32377;52.182;5.398;2022-08-18T17:42:09;23.80;99.90
46652;DHT22;32377;52.182;5.398;2022-08-18T17:44:50;23.80;99.90
46652;DHT22;32377;52.182;5.398;2022-08-18T17:47:25;23.60;99.90
46652;DHT22;32377;52.182;5.398;2022-08-18T17:49:55;23.60;99.90
46652;DHT22;32377;52.182;5.398;2022-08-18T17:53:03;23.60;99.90
46652;DHT22;32377;52.182;5.398;2022-08-18T17:55:48;23.50;99.90
46652;DHT22;32377;52.182;5.398;2022-08-18T17:58:28;23.50;99.90
46652;DHT22;32377;52.182;5.398;2022-08-18T18:00:59;23.50;99.90